Time;durP1;ratioP1;P1;durP2;ratioP2;P2;SDS_P1;SDS_P2;PMS_P1;PMS_P2;Temp;Humidity;BMP_temperature;BMP_pressure;BME280_temperature;BME280_humidity;BME280_pressure;Samples;Min_cycle;Max_cycle;Signal;HPM_P1;HPM_P2
2023/07/31 00:00:37;;;;;;;0.10;0.10;;;21.80;99.90;;;;;;5059626;28;20095;-80
2023/07/31 00:03:08;;;;;;;0.10;0.10;;;21.50;99.90;;;;;;5059988;28;20021;-80
2023/07/31 00:05:34;;;;;;;0.10;0.10;;;;;;;;;;5060425;28;20017;-82
2023/07/31 00:08:00;;;;;;;0.03;0.03;;;21.10;99.90;;;;;;5060315;28;20023;-83
2023/07/31 00:10:26;;;;;;;0.10;0.10;;;;;;;;;;5042183;28;20017;-82
2023/07/31 00:12:51;;;;;;;0.10;0.10;;;20.80;99.90;;;;;;5060176;28;20040;-80
2023/07/31 00:15:45;;;;;;;0.10;0.10;;;21.30;99.90;;;;;;5042163;28;20020;-85
2023/07/31 00:18:11;;;;;;;0.10;0.10;;;;;;;;;;5060425;28;20036;-81
2023/07/31 00:20:42;;;;;;;0.05;0.05;;;21.20;99.90;;;;;;5059799;28;20067;-81
2023/07/31 00:23:11;;;;;;;0.10;0.10;;;;;;;;;;5043756;28;20028;-83
2023/07/31 00:25:37;;;;;;;0.10;0.10;;;21.40;99.90;;;;;;5061361;28;20044;-80
2023/07/31 00:28:05;;;;;;;0.10;0.10;;;21.60;99.90;;;;;;5042461;28;20486;-81
2023/07/31 00:30:32;;;;;;;0.10;0.10;;;;;;;;;;5042654;28;20029;-79
2023/07/31 00:33:00;;;;;;;0.63;0.63;;;21.70;99.90;;;;;;5041473;28;20633;-82
2023/07/31 00:35:26;;;;;;;0.10;0.10;;;;;;;;;;5060476;28;20136;-87
2023/07/31 00:37:52;;;;;;;0.10;0.10;;;21.60;99.90;;;;;;5059593;28;20031;-80
2023/07/31 00:40:21;;;;;;;0.00;0.00;;;21.70;99.90;;;;;;5059803;28;20020;-82
2023/07/31 00:42:46;;;;;;;0.10;0.10;;;22.00;99.90;;;;;;5059654;28;20518;-85
2023/07/31 00:45:12;;;;;;;0.10;0.10;;;21.50;99.90;;;;;;5060499;28;20028;-88
2023/07/31 00:47:38;;;;;;;0.10;0.10;;;21.30;99.90;;;;;;5041682;28;20047;-89
2023/07/31 00:50:10;;;;;;;0.10;0.10;;;21.50;99.90;;;;;;5059910;28;20672;-85
2023/07/31 00:52:41;;;;;;;0.00;0.00;;;21.80;99.90;;;;;;5060203;28;20017;-85
2023/07/31 00:55:09;;;;;;;0.10;0.10;;;21.80;99.90;;;;;;5041529;28;20025;-82
2023/07/31 00:57:41;;;;;;;0.10;0.10;;;21.90;99.90;;;;;;5059958;28;20033;-80
2023/07/31 01:00:07;;;;;;;0.10;0.10;;;22.00;99.90;;;;;;5042059;28;20040;-84
2023/07/31 01:02:40;;;;;;;0.03;0.03;;;20.60;99.90;;;;;;5059574;28;20020;-85
2023/07/31 01:05:06;;;;;;;;;;;22.20;99.90;;;;;;5060024;28;20017;-80
2023/07/31 01:08:18;;;;;;;0.10;0.10;;;22.30;99.90;;;;;;5059389;28;19904;-84
2023/07/31 01:10:54;;;;;;;0.10;0.10;;;21.00;99.90;;;;;;4980449;28;20042;-86
2023/07/31 01:13:21;;;;;;;0.30;0.30;;;22.20;99.90;;;;;;4997467;28;20038;-88
2023/07/31 01:15:46;;;;;;;0.20;0.20;;;22.20;99.90;;;;;;4997298;28;20112;-88
2023/07/31 01:18:12;;;;;;;0.10;0.10;;;23.20;99.90;;;;;;4996698;28;20101;-80
2023/07/31 01:20:42;;;;;;;0.10;0.10;;;21.90;99.90;;;;;;4997114;28;20618;-83
2023/07/31 01:23:40;;;;;;;0.10;0.10;;;21.90;99.90;;;;;;4999631;28;20034;-86
2023/07/31 01:26:15;;;;;;;0.65;0.65;;;22.00;99.90;;;;;;4997233;28;20101;-79
2023/07/31 01:29:22;;;;;;;0.20;0.20;;;22.10;99.90;;;;;;4997141;28;20030;-87
2023/07/31 01:31:53;;;;;;;2.20;2.05;;;22.30;99.90;;;;;;4997032;28;20036;-81
2023/07/31 01:34:23;;;;;;;0.10;0.10;;;22.10;99.90;;;;;;4979692;28;20721;-82
2023/07/31 01:36:49;;;;;;;0.30;0.30;;;22.20;99.90;;;;;;4996568;28;20080;-87
2023/07/31 01:39:15;;;;;;;0.68;0.68;;;22.30;99.90;;;;;;4997114;28;20038;-88
2023/07/31 01:41:41;;;;;;;0.10;0.10;;;;;;;;;;4997434;28;20132;-86
2023/07/31 01:44:16;;;;;;;0.10;0.10;;;22.30;99.90;;;;;;4997480;28;20053;-86
2023/07/31 01:46:44;;;;;;;0.00;0.00;;;22.30;99.90;;;;;;4999755;28;20034;-86
2023/07/31 01:49:10;;;;;;;0.20;0.20;;;;;;;;;;5059673;28;20038;-85
2023/07/31 01:51:41;;;;;;;0.20;0.20;;;22.30;99.90;;;;;;5059240;28;20052;-81
2023/07/31 01:54:09;;;;;;;0.10;0.10;;;22.30;99.90;;;;;;5059024;28;20016;-82
2023/07/31 01:56:37;;;;;;;0.55;0.55;;;22.30;99.90;;;;;;5044505;28;20112;-83
2023/07/31 01:59:03;;;;;;;0.10;0.10;;;23.70;99.90;;;;;;5063489;28;20025;-84
2023/07/31 02:01:29;;;;;;;0.10;0.10;;;21.80;99.90;;;;;;5063067;28;20023;-82
2023/07/31 02:04:01;;;;;;;0.10;0.10;;;;;;;;;;5063144;28;20107;-85
2023/07/31 02:06:27;;;;;;;0.10;0.10;;;21.60;99.90;;;;;;5062422;28;20024;-83
2023/07/31 02:08:59;;;;;;;0.10;0.10;;;21.30;99.90;;;;;;5062563;28;20016;-82
2023/07/31 02:11:25;;;;;;;0.10;0.10;;;;;;;;;;5062334;28;20813;-84
2023/07/31 02:13:53;;;;;;;0.10;0.10;;;20.10;99.90;;;;;;5044932;28;20410;-85
2023/07/31 02:16:24;;;;;;;0.10;0.10;;;20.10;99.90;;;;;;5062395;28;20017;-81
2023/07/31 02:18:50;;;;;;;0.10;0.10;;;20.20;99.90;;;;;;5062307;28;20032;-87
2023/07/31 02:21:16;;;;;;;0.55;0.55;;;20.20;99.90;;;;;;5062981;28;20023;-83
2023/07/31 02:23:41;;;;;;;0.10;0.10;;;20.60;99.90;;;;;;5044106;28;20681;-80
2023/07/31 02:26:07;;;;;;;0.10;0.10;;;20.90;99.90;;;;;;5063458;28;20025;-81
2023/07/31 02:28:33;;;;;;;0.08;0.08;;;21.10;99.90;;;;;;5062511;28;20097;-83
2023/07/31 02:31:20;;;;;;;0.10;0.10;;;21.40;99.90;;;;;;5062296;28;20021;-84
2023/07/31 02:33:46;;;;;;;0.10;0.10;;;21.20;99.90;;;;;;5062611;28;20031;-88
2023/07/31 02:36:14;;;;;;;0.10;0.10;;;21.00;99.90;;;;;;5062336;28;20020;-79
2023/07/31 02:38:43;;;;;;;0.10;0.10;;;21.00;99.90;;;;;;5044401;28;20024;-83
2023/07/31 02:41:09;;;;;;;0.10;0.10;;;21.10;99.90;;;;;;5062034;28;20020;-88
2023/07/31 02:43:35;;;;;;;0.10;0.10;;;21.20;99.90;;;;;;5062421;28;20582;-80
2023/07/31 02:46:01;;;;;;;0.10;0.10;;;;;;;;;;5043525;28;20585;-86
2023/07/31 02:48:32;;;;;;;0.10;0.10;;;21.50;99.90;;;;;;5044430;28;20037;-85
2023/07/31 02:50:58;;;;;;;3.00;2.80;;;21.60;99.90;;;;;;5043832;28;20506;-82
2023/07/31 02:53:26;;;;;;;0.10;0.10;;;21.70;99.90;;;;;;5061957;28;20044;-81
2023/07/31 02:55:55;;;;;;;0.10;0.10;;;21.50;99.90;;;;;;5043926;28;20518;-84
2023/07/31 02:58:23;;;;;;;0.10;0.10;;;21.50;99.90;;;;;;5061437;28;20028;-82
2023/07/31 03:00:52;;;;;;;0.10;0.10;;;21.60;99.90;;;;;;5042667;28;20048;-80
2023/07/31 03:03:18;;;;;;;0.10;0.10;;;;;;;;;;5043942;28;20032;-85
2023/07/31 03:05:46;;;;;;;0.10;0.10;;;21.50;99.90;;;;;;5062148;28;20243;-81
2023/07/31 03:08:12;;;;;;;0.10;0.10;;;21.60;99.90;;;;;;5062053;28;20020;-87
2023/07/31 03:10:37;;;;;;;0.00;0.00;;;21.30;99.90;;;;;;5061654;28;20017;-83
2023/07/31 03:13:06;;;;;;;0.10;0.10;;;21.30;99.90;;;;;;5044342;28;20034;-87
2023/07/31 03:15:35;;;;;;;0.10;0.10;;;21.30;99.90;;;;;;5061801;28;20012;-83
2023/07/31 03:18:03;;;;;;;0.10;0.10;;;19.40;99.90;;;;;;5061248;28;20028;-79
2023/07/31 03:20:32;;;;;;;0.10;0.10;;;20.10;99.90;;;;;;5043256;28;20086;-80
2023/07/31 03:22:58;;;;;;;0.10;0.10;;;20.80;99.90;;;;;;5061587;28;20029;-87
2023/07/31 03:25:27;;;;;;;0.10;0.10;;;;;;;;;;5060755;28;20023;-87
2023/07/31 03:27:55;;;;;;;0.10;0.10;;;21.40;99.90;;;;;;5061792;28;20458;-85
2023/07/31 03:30:21;;;;;;;0.10;0.10;;;21.50;99.90;;;;;;5061625;28;20106;-88
2023/07/31 03:32:47;;;;;;;0.10;0.10;;;21.60;99.90;;;;;;5061411;28;20378;-85
2023/07/31 03:35:15;;;;;;;0.10;0.10;;;21.60;99.90;;;;;;5061672;28;20642;-84
2023/07/31 03:37:44;;;;;;;0.10;0.10;;;21.70;99.90;;;;;;5061206;28;20028;-83
2023/07/31 03:40:11;;;;;;;2.38;2.17;;;23.20;99.90;;;;;;5062599;28;20695;-84
2023/07/31 03:42:37;;;;;;;0.10;0.10;;;;;;;;;;5045383;28;20028;-81
2023/07/31 03:45:06;;;;;;;0.10;0.10;;;22.00;99.90;;;;;;5062163;28;20021;-85
2023/07/31 03:47:32;;;;;;;0.45;0.45;;;;;;;;;;5061658;28;20142;-88
2023/07/31 03:50:01;;;;;;;0.35;0.30;;;22.00;99.90;;;;;;5060956;28;20016;-84
2023/07/31 03:52:29;;;;;;;1.48;1.38;;;22.70;99.90;;;;;;5061034;28;20037;-83
2023/07/31 03:54:55;;;;;;;1.77;1.67;;;21.30;99.90;;;;;;5060883;28;20063;-83
2023/07/31 03:57:21;;;;;;;2.55;2.45;;;21.10;99.90;;;;;;5026125;28;20055;-81
2023/07/31 03:59:52;;;;;;;0.00;0.00;;;20.90;99.90;;;;;;5042934;28;20032;-78
2023/07/31 04:02:18;;;;;;;0.20;0.20;;;20.90;99.90;;;;;;5041687;28;20036;-86
2023/07/31 04:04:48;;;;;;;1.75;1.13;;;21.20;99.90;;;;;;5060610;28;20217;-79
2023/07/31 04:07:14;;;;;;;0.93;0.90;;;18.70;99.90;;;;;;5060126;28;20078;-86
2023/07/31 04:09:42;;;;;;;0.10;0.10;;;21.10;99.90;;;;;;5060533;28;20032;-85
2023/07/31 04:12:10;;;;;;;0.20;0.20;;;21.30;99.90;;;;;;5060054;28;20013;-85
2023/07/31 04:14:36;;;;;;;0.10;0.10;;;20.50;99.90;;;;;;5060332;28;20096;-82
2023/07/31 04:17:02;;;;;;;1.75;1.65;;;21.40;99.90;;;;;;5042251;28;20096;-87
2023/07/31 04:19:28;;;;;;;0.10;0.10;;;19.90;99.90;;;;;;5060684;28;20020;-87
2023/07/31 04:21:56;;;;;;;0.10;0.10;;;21.20;99.90;;;;;;5059990;28;20066;-82
2023/07/31 04:24:24;;;;;;;0.10;0.10;;;21.40;99.90;;;;;;5059859;28;20028;-79
2023/07/31 04:26:53;;;;;;;4.38;2.40;;;21.40;99.90;;;;;;5042752;28;20024;-83
2023/07/31 04:29:22;;;;;;;0.10;0.10;;;21.50;99.90;;;;;;5060454;28;20016;-80
2023/07/31 04:31:51;;;;;;;2.00;1.85;;;21.50;99.90;;;;;;5042332;28;20028;-86
2023/07/31 04:34:17;;;;;;;0.30;0.30;;;;;;;;;;5060027;28;20086;-81
2023/07/31 04:36:43;;;;;;;0.40;0.40;;;21.70;99.90;;;;;;5059557;28;20056;-79
2023/07/31 04:39:09;;;;;;;0.15;0.15;;;21.80;99.90;;;;;;5041690;28;20020;-79
2023/07/31 04:41:35;;;;;;;0.25;0.25;;;22.00;99.90;;;;;;5042045;28;20034;-79
2023/07/31 04:44:01;;;;;;;0.10;0.10;;;19.70;99.90;;;;;;5042042;28;20021;-79
2023/07/31 04:46:27;;;;;;;0.10;0.10;;;21.80;99.90;;;;;;5041733;28;20107;-79
2023/07/31 04:48:53;;;;;;;0.10;0.10;;;21.80;99.90;;;;;;5041018;28;20116;-87
2023/07/31 04:51:25;;;;;;;0.10;0.10;;;21.70;99.90;;;;;;5038215;28;20060;-84
2023/07/31 04:53:50;;;;;;;0.20;0.20;;;21.60;99.90;;;;;;5038776;28;20154;-80
2023/07/31 04:56:16;;;;;;;0.20;0.20;;;;;;;;;;5039807;28;20657;-83
2023/07/31 04:58:45;;;;;;;0.10;0.10;;;21.90;99.90;;;;;;5039448;28;20043;-84
2023/07/31 05:01:10;;;;;;;0.10;0.10;;;21.80;99.90;;;;;;5039899;28;20577;-86
2023/07/31 05:03:36;;;;;;;0.10;0.10;;;22.00;99.90;;;;;;5039952;28;20024;-81
2023/07/31 05:06:02;;;;;;;0.10;0.10;;;22.00;99.90;;;;;;5039519;28;20450;-83
2023/07/31 05:08:30;;;;;;;0.10;0.10;;;22.00;99.90;;;;;;5039184;28;20056;-84
2023/07/31 05:10:59;;;;;;;0.38;0.38;;;22.10;99.90;;;;;;5038988;28;20245;-83
2023/07/31 05:13:25;;;;;;;0.70;0.70;;;22.00;99.90;;;;;;5038106;28;20032;-82
2023/07/31 05:15:53;;;;;;;0.25;0.25;;;21.90;99.90;;;;;;5038854;28;20025;-87
2023/07/31 05:18:22;;;;;;;0.30;0.30;;;21.80;99.90;;;;;;5039990;28;20033;-83
2023/07/31 05:20:48;;;;;;;0.10;0.10;;;;;;;;;;5040234;28;20674;-81
2023/07/31 05:23:17;;;;;;;0.10;0.10;;;;;;;;;;5038588;28;20036;-86
2023/07/31 05:25:51;;;;;;;0.10;0.10;;;22.00;99.90;;;;;;5039766;28;20067;-85
2023/07/31 05:28:17;;;;;;;0.10;0.10;;;22.20;99.90;;;;;;5039113;28;20079;-87
2023/07/31 05:30:43;;;;;;;0.10;0.10;;;22.30;99.90;;;;;;5039857;28;20075;-80
2023/07/31 05:33:09;;;;;;;0.22;0.22;;;22.40;99.90;;;;;;5039845;28;20028;-83
2023/07/31 05:35:36;;;;;;;0.20;0.20;;;22.40;99.90;;;;;;5039380;28;20577;-78
2023/07/31 05:38:02;;;;;;;0.10;0.10;;;22.40;99.90;;;;;;5040116;28;20166;-78
2023/07/31 05:40:28;;;;;;;0.25;0.25;;;22.20;99.90;;;;;;5039348;28;20013;-78
2023/07/31 05:42:54;;;;;;;0.30;0.30;;;22.20;99.90;;;;;;5038122;28;20017;-79
2023/07/31 05:45:20;;;;;;;0.10;0.10;;;22.40;99.90;;;;;;5039043;28;20279;-79
2023/07/31 05:47:46;;;;;;;0.10;0.10;;;22.50;99.90;;;;;;5038687;28;20043;-80
2023/07/31 05:50:15;;;;;;;0.10;0.10;;;22.30;99.90;;;;;;5043172;28;20529;-78
2023/07/31 05:52:41;;;;;;;0.10;0.10;;;22.30;99.90;;;;;;5042102;28;20667;-80
2023/07/31 05:55:14;;;;;;;0.15;0.15;;;22.40;99.90;;;;;;5059095;28;20079;-79
2023/07/31 05:57:46;;;;;;;0.32;0.32;;;22.40;99.90;;;;;;5059477;28;20040;-78
2023/07/31 06:00:15;;;;;;;0.93;0.93;;;22.50;99.90;;;;;;5059221;28;20082;-84
2023/07/31 06:02:40;;;;;;;0.70;0.70;;;22.60;99.90;;;;;;5058878;28;20053;-90
2023/07/31 06:05:07;;;;;;;0.32;0.32;;;22.70;99.90;;;;;;5058102;28;20130;-82
2023/07/31 06:07:33;;;;;;;0.10;0.10;;;22.80;99.90;;;;;;5058656;28;20072;-80
2023/07/31 06:10:09;;;;;;;0.47;0.47;;;;;;;;;;5058644;28;20013;-78
2023/07/31 06:12:38;;;;;;;0.95;0.95;;;22.90;99.90;;;;;;5041333;28;20031;-84
2023/07/31 06:15:04;;;;;;;0.43;0.38;;;22.80;99.90;;;;;;5058234;28;20027;-80
2023/07/31 06:17:30;;;;;;;0.10;0.10;;;;;;;;;;5040599;28;20131;-83
2023/07/31 06:19:59;;;;;;;0.10;0.10;;;23.20;99.90;;;;;;5058827;28;20013;-77
2023/07/31 06:22:25;;;;;;;2.28;2.17;;;23.30;99.90;;;;;;5058654;28;20025;-79
2023/07/31 06:24:54;;;;;;;0.22;0.22;;;23.50;99.90;;;;;;5058822;28;20535;-80
2023/07/31 06:27:20;;;;;;;0.85;0.85;;;23.40;99.90;;;;;;5041108;28;20024;-80
2023/07/31 06:29:46;;;;;;;0.63;0.63;;;23.40;99.90;;;;;;5059770;28;20604;-87
2023/07/31 06:32:17;;;;;;;0.10;0.10;;;23.50;99.90;;;;;;5060235;28;20671;-82
2023/07/31 06:34:48;;;;;;;0.10;0.10;;;21.60;99.90;;;;;;5058699;28;20021;-78
2023/07/31 06:37:17;;;;;;;0.10;0.10;;;22.70;99.90;;;;;;5064775;28;20017;-88
2023/07/31 06:39:42;;;;;;;3.85;1.23;;;22.80;99.90;;;;;;5062714;28;20025;-82
2023/07/31 06:42:14;;;;;;;0.10;0.10;;;23.00;99.90;;;;;;5063719;28;20399;-79
2023/07/31 06:44:43;;;;;;;1.73;1.13;;;23.20;99.90;;;;;;5066106;28;20021;-86
2023/07/31 06:47:13;;;;;;;0.10;0.10;;;23.10;99.90;;;;;;5068082;28;20629;-81
2023/07/31 06:49:39;;;;;;;0.17;0.17;;;23.40;99.90;;;;;;5048249;28;20029;-89
2023/07/31 06:52:08;;;;;;;0.20;0.20;;;23.30;99.90;;;;;;5072619;28;20090;-78
2023/07/31 06:54:34;;;;;;;0.10;0.10;;;23.60;99.90;;;;;;5068001;28;20055;-83
2023/07/31 06:57:00;;;;;;;0.73;0.73;;;23.60;99.90;;;;;;5071422;28;20135;-78
2023/07/31 06:59:29;;;;;;;0.10;0.10;;;23.70;99.90;;;;;;5070279;28;20732;-87
2023/07/31 07:01:55;;;;;;;0.00;0.00;;;25.60;99.90;;;;;;5063156;28;20048;-83
2023/07/31 07:04:23;;;;;;;0.10;0.10;;;24.10;99.90;;;;;;5064189;28;20698;-79
2023/07/31 07:06:54;;;;;;;0.10;0.10;;;24.30;99.90;;;;;;5044265;28;20107;-79
2023/07/31 07:09:20;;;;;;;0.15;0.15;;;24.30;99.90;;;;;;5045776;28;20017;-85
2023/07/31 07:11:46;;;;;;;0.55;0.30;;;24.20;99.90;;;;;;5063287;28;20702;-87
2023/07/31 07:14:16;;;;;;;0.00;0.00;;;23.80;99.90;;;;;;5063268;28;20167;-81
2023/07/31 07:16:48;;;;;;;0.10;0.10;;;23.50;99.90;;;;;;5063720;28;20025;-92
2023/07/31 07:19:13;;;;;;;0.20;0.20;;;23.20;99.90;;;;;;5065298;28;20025;-80
2023/07/31 07:21:42;;;;;;;0.10;0.10;;;22.90;99.90;;;;;;5062668;28;20016;-79
2023/07/31 07:24:08;;;;;;;0.10;0.10;;;;;;;;;;5047948;28;20028;-88
2023/07/31 07:26:34;;;;;;;0.20;0.20;;;22.60;99.90;;;;;;5063720;28;20059;-82
2023/07/31 07:29:02;;;;;;;0.10;0.10;;;;;;;;;;5063079;28;20095;-87
2023/07/31 07:31:30;;;;;;;0.80;0.80;;;22.50;99.90;;;;;;5064192;28;20052;-92
2023/07/31 07:34:10;;;;;;;0.10;0.10;;;22.40;99.90;;;;;;5062286;28;20270;-78
2023/07/31 07:36:37;;;;;;;0.15;0.15;;;19.30;99.90;;;;;;5043042;28;20017;-79
2023/07/31 07:39:03;;;;;;;0.13;0.13;;;22.50;99.90;;;;;;5060813;28;20643;-84
2023/07/31 07:41:29;;;;;;;0.40;0.40;;;22.80;99.90;;;;;;5043857;28;20086;-80
2023/07/31 07:43:55;;;;;;;0.15;0.15;;;22.40;99.90;;;;;;5062092;28;20097;-80
2023/07/31 07:46:21;;;;;;;0.10;0.10;;;22.40;99.90;;;;;;5043353;28;20275;-81
2023/07/31 07:48:47;;;;;;;0.10;0.10;;;;;;;;;;5060983;28;20038;-90
2023/07/31 07:51:13;;;;;;;0.20;0.20;;;22.60;99.90;;;;;;5039515;28;20986;-81
2023/07/31 07:53:42;;;;;;;0.17;0.17;;;22.70;99.90;;;;;;5039612;28;20024;-86
2023/07/31 07:56:07;;;;;;;0.43;0.35;;;22.70;99.90;;;;;;5039815;28;20112;-81
2023/07/31 07:58:39;;;;;;;0.28;0.17;;;22.80;99.90;;;;;;5040809;28;20104;-79
2023/07/31 08:01:04;;;;;;;0.08;0.08;;;23.10;99.90;;;;;;5042568;28;20634;-85
2023/07/31 08:03:30;;;;;;;0.45;0.45;;;23.30;99.90;;;;;;5043214;28;20049;-83
2023/07/31 08:06:00;;;;;;;2.05;1.95;;;23.50;99.90;;;;;;5041470;28;20052;-80
2023/07/31 08:08:28;;;;;;;12.77;1.45;;;23.50;99.90;;;;;;5041663;28;20017;-93
2023/07/31 08:10:54;;;;;;;0.20;0.20;;;;;;;;;;5042279;28;20029;-83
2023/07/31 08:13:22;;;;;;;0.20;0.20;;;23.50;99.90;;;;;;5041439;28;20021;-87
2023/07/31 08:15:47;;;;;;;0.35;0.35;;;23.50;99.90;;;;;;5039769;28;20053;-83
2023/07/31 08:18:18;;;;;;;0.10;0.10;;;23.60;99.90;;;;;;5041521;28;20685;-80
2023/07/31 08:20:45;;;;;;;0.10;0.10;;;;;;;;;;5041800;28;20021;-84
2023/07/31 08:23:10;;;;;;;0.20;0.20;;;23.80;99.90;;;;;;5041411;28;20536;-83
2023/07/31 08:25:39;;;;;;;0.20;0.20;;;24.50;99.90;;;;;;5038443;28;20035;-80
2023/07/31 08:28:07;;;;;;;0.10;0.10;;;24.70;99.90;;;;;;5041829;28;20039;-88
2023/07/31 08:30:33;;;;;;;0.00;0.00;;;24.40;99.90;;;;;;5041237;28;20710;-88
2023/07/31 08:33:00;;;;;;;0.35;0.35;;;;;;;;;;5040541;28;20021;-90
2023/07/31 08:35:28;;;;;;;0.05;0.05;;;24.40;99.90;;;;;;5040118;28;20017;-80
2023/07/31 08:38:03;;;;;;;0.15;0.15;;;24.20;99.90;;;;;;5038885;28;20033;-84
2023/07/31 08:40:40;;;;;;;1.55;0.57;;;24.50;99.90;;;;;;5042796;28;20017;-80
2023/07/31 08:43:07;;;;;;;0.17;0.17;;;24.60;99.90;;;;;;5041995;28;20017;-86
2023/07/31 08:45:36;;;;;;;0.17;0.13;;;24.50;99.90;;;;;;5042606;28;20029;-83
2023/07/31 08:48:11;;;;;;;0.40;0.40;;;24.60;99.90;;;;;;5044353;28;20259;-79
2023/07/31 08:50:40;;;;;;;0.20;0.20;;;25.00;99.90;;;;;;5043460;28;20234;-81
2023/07/31 08:53:16;;;;;;;0.10;0.10;;;25.00;99.90;;;;;;5044471;28;20017;-88
2023/07/31 08:55:45;;;;;;;0.00;0.00;;;27.90;99.90;;;;;;5041924;28;20644;-79
2023/07/31 08:58:13;;;;;;;0.57;0.57;;;25.20;99.90;;;;;;5041734;28;20146;-78
2023/07/31 09:00:41;;;;;;;0.32;0.32;;;25.20;99.90;;;;;;5042456;28;20019;-89
2023/07/31 09:03:15;;;;;;;0.15;0.05;;;26.90;99.90;;;;;;5041026;28;20033;-79
2023/07/31 09:05:57;;;;;;;0.10;0.10;;;25.30;99.90;;;;;;5041629;28;20070;-79
2023/07/31 09:08:26;;;;;;;0.40;0.40;;;25.30;99.90;;;;;;5039289;28;20014;-88
2023/07/31 09:10:54;;;;;;;0.00;0.00;;;24.60;99.90;;;;;;5041489;28;20021;-89
2023/07/31 09:13:20;;;;;;;0.10;0.10;;;24.50;99.90;;;;;;5039599;28;20009;-88
2023/07/31 09:15:50;;;;;;;0.03;0.03;;;24.30;99.90;;;;;;5041024;28;20154;-84
2023/07/31 09:18:22;;;;;;;0.35;0.35;;;24.10;99.90;;;;;;5040017;28;20025;-78
2023/07/31 09:21:09;;;;;;;1.13;0.50;;;24.00;99.90;;;;;;5038800;28;20202;-90
2023/07/31 09:23:43;;;;;;;0.10;0.10;;;23.80;99.90;;;;;;5039571;28;20017;-93
2023/07/31 09:26:39;;;;;;;0.15;0.15;;;23.70;99.90;;;;;;5041191;28;20070;-84
2023/07/31 09:29:10;;;;;;;0.10;0.10;;;25.00;99.90;;;;;;5041476;28;20009;-85
2023/07/31 09:31:45;;;;;;;0.10;0.10;;;23.70;99.90;;;;;;5040708;28;20024;-86
2023/07/31 09:34:11;;;;;;;0.57;0.57;;;24.20;99.90;;;;;;5040795;28;20025;-90
2023/07/31 09:36:49;;;;;;;0.10;0.10;;;24.40;99.90;;;;;;5040845;28;20666;-83
2023/07/31 09:39:16;;;;;;;0.00;0.00;;;24.70;99.90;;;;;;5040538;28;20206;-79
2023/07/31 09:41:59;;;;;;;4.50;4.30;;;25.00;99.90;;;;;;5039030;28;20083;-81
2023/07/31 09:44:41;;;;;;;0.20;0.20;;;25.40;99.90;;;;;;5039709;28;20033;-89
2023/07/31 09:47:20;;;;;;;0.70;0.70;;;25.40;99.90;;;;;;5039607;28;20021;-93
2023/07/31 09:49:54;;;;;;;0.10;0.10;;;25.50;99.90;;;;;;5040382;28;20108;-91
2023/07/31 09:52:22;;;;;;;0.10;0.10;;;25.40;99.90;;;;;;5040554;28;20025;-87
2023/07/31 09:54:48;;;;;;;0.10;0.10;;;25.30;99.90;;;;;;5040748;28;20033;-85
2023/07/31 09:57:17;;;;;;;0.00;0.00;;;25.50;99.90;;;;;;5039607;28;20029;-84
2023/07/31 09:59:42;;;;;;;0.08;0.08;;;25.00;99.90;;;;;;5038720;28;20579;-81
2023/07/31 10:02:14;;;;;;;0.30;0.30;;;25.00;99.90;;;;;;5039876;28;20017;-87
2023/07/31 10:04:45;;;;;;;0.00;0.00;;;25.00;99.90;;;;;;5040315;28;20025;-78
2023/07/31 10:07:25;;;;;;;0.10;0.10;;;25.00;99.90;;;;;;5038076;28;20032;-79
2023/07/31 10:10:00;;;;;;;0.10;0.10;;;25.00;99.90;;;;;;5039438;28;20112;-78
2023/07/31 10:12:28;;;;;;;0.10;0.10;;;25.70;99.90;;;;;;5037330;28;20078;-81
2023/07/31 10:14:59;;;;;;;6.68;6.22;;;25.70;99.90;;;;;;5038315;28;20108;-80
2023/07/31 10:17:28;;;;;;;0.10;0.10;;;25.20;99.90;;;;;;5040282;28;20052;-84
2023/07/31 10:19:54;;;;;;;0.08;0.08;;;26.20;99.90;;;;;;5044225;28;20087;-78
2023/07/31 10:22:27;;;;;;;0.03;0.03;;;26.40;99.90;;;;;;5043883;28;20081;-93
2023/07/31 10:25:00;;;;;;;2.65;1.20;;;26.50;99.90;;;;;;5044930;28;20017;-80
2023/07/31 10:27:27;;;;;;;0.20;0.15;;;28.70;99.90;;;;;;5042473;28;20028;-81
2023/07/31 10:29:58;;;;;;;0.00;0.00;;;26.70;99.90;;;;;;5045583;28;20112;-82
2023/07/31 10:32:33;;;;;;;0.55;0.55;;;26.20;99.90;;;;;;5042711;28;20593;-81
2023/07/31 10:38:15;;;;;;;0.00;0.00;;;24.90;99.90;;;;;;5005380;28;20061;-92
2023/07/31 10:40:46;;;;;;;0.20;0.20;;;27.40;99.90;;;;;;5006658;28;20030;-82
2023/07/31 10:43:27;;;;;;;0.15;0.15;;;25.70;99.90;;;;;;5002513;28;20037;-81
2023/07/31 10:45:53;;;;;;;0.10;0.10;;;26.10;99.90;;;;;;4992030;28;20026;-92
2023/07/31 10:48:32;;;;;;;0.08;0.08;;;26.50;99.90;;;;;;5001329;28;20022;-91
2023/07/31 10:51:01;;;;;;;0.45;0.45;;;26.50;99.90;;;;;;4961258;28;20468;-79
2023/07/31 10:53:40;;;;;;;0.00;0.00;;;26.90;99.90;;;;;;4963697;28;20782;-79
2023/07/31 10:56:15;;;;;;;0.15;0.15;;;24.70;99.80;;;;;;4941405;29;20062;-80
2023/07/31 10:59:00;;;;;;;0.10;0.10;;;27.20;99.00;;;;;;4941581;28;20250;-85
2023/07/31 11:02:02;;;;;;;0.00;0.00;;;30.10;99.30;;;;;;4945027;29;20031;-88
2023/07/31 11:04:34;;;;;;;4.18;0.47;;;27.90;97.50;;;;;;4947043;28;20066;-80
2023/07/31 11:07:13;;;;;;;0.10;0.10;;;28.50;97.50;;;;;;4943233;29;20027;-81
2023/07/31 11:09:50;;;;;;;0.10;0.10;;;28.60;96.60;;;;;;4927605;29;20035;-79
2023/07/31 11:12:18;;;;;;;0.20;0.10;;;28.80;96.40;;;;;;4950847;29;20036;-89
2023/07/31 11:15:14;;;;;;;0.15;0.15;;;26.40;95.30;;;;;;4962954;28;20031;-82
2023/07/31 11:17:59;;;;;;;0.82;0.55;;;29.20;95.60;;;;;;4982284;28;20065;-81
2023/07/31 11:20:27;;;;;;;0.08;0.08;;;29.50;94.60;;;;;;4992413;28;20023;-82
2023/07/31 11:23:09;;;;;;;0.68;0.20;;;29.70;93.40;;;;;;5007360;28;20503;-94
2023/07/31 11:25:37;;;;;;;0.47;0.40;;;29.30;90.90;;;;;;5006072;28;20850;-79
2023/07/31 11:28:11;;;;;;;0.10;0.10;;;30.00;91.30;;;;;;5035805;28;20025;-79
2023/07/31 11:30:42;;;;;;;0.38;0.25;;;30.50;91.90;;;;;;5044296;28;20032;-87
2023/07/31 11:33:14;;;;;;;0.63;0.63;;;30.10;90.40;;;;;;5044946;28;20036;-79
2023/07/31 11:35:51;;;;;;;0.22;0.22;;;30.50;91.30;;;;;;5039602;28;20037;-78
2023/07/31 11:38:26;;;;;;;0.20;0.20;;;30.90;90.50;;;;;;5041219;28;20033;-85
2023/07/31 11:41:00;;;;;;;0.88;0.52;;;31.30;88.50;;;;;;5045408;28;20021;-81
2023/07/31 11:43:26;;;;;;;0.20;0.20;;;31.60;86.50;;;;;;5040047;28;20032;-79
2023/07/31 11:46:02;;;;;;;0.50;0.35;;;31.80;86.00;;;;;;5042635;28;20021;-79
2023/07/31 11:48:36;;;;;;;0.13;0.13;;;32.00;81.40;;;;;;5044961;28;20021;-80
2023/07/31 11:51:04;;;;;;;0.10;0.10;;;31.90;82.00;;;;;;5044106;28;20734;-85
2023/07/31 11:53:42;;;;;;;0.20;0.20;;;32.50;83.20;;;;;;5062910;28;20048;-81
2023/07/31 11:56:11;;;;;;;0.10;0.10;;;32.00;81.90;;;;;;5062158;28;20037;-88
2023/07/31 11:58:39;;;;;;;0.20;0.20;;;32.30;82.50;;;;;;5046622;28;20127;-82
2023/07/31 12:01:06;;;;;;;0.00;0.00;;;32.10;80.00;;;;;;5066351;28;20104;-77
2023/07/31 12:03:35;;;;;;;1.58;1.23;;;32.00;80.20;;;;;;5043115;28;20028;-82
2023/07/31 12:06:07;;;;;;;0.32;0.30;;;31.80;79.40;;;;;;5060933;28;20017;-79
2023/07/31 12:08:39;;;;;;;0.35;0.35;;;31.20;80.90;;;;;;5041894;28;20222;-79
2023/07/31 12:11:09;;;;;;;0.30;0.30;;;31.30;82.60;;;;;;5045632;28;20024;-86
2023/07/31 12:13:38;;;;;;;0.10;0.10;;;30.70;81.80;;;;;;5058011;28;20016;-80
2023/07/31 12:16:08;;;;;;;0.20;0.20;;;29.90;81.20;;;;;;5065382;28;20025;-89
2023/07/31 12:18:42;;;;;;;0.10;0.10;;;27.90;84.30;;;;;;5064171;28;20033;-76
2023/07/31 12:21:11;;;;;;;0.00;0.00;;;28.40;84.80;;;;;;5043414;28;20033;-88
2023/07/31 12:23:38;;;;;;;0.10;0.10;;;28.10;86.90;;;;;;5043724;28;20037;-86
2023/07/31 12:26:11;;;;;;;0.20;0.20;;;28.40;86.90;;;;;;5042126;28;20032;-86
2023/07/31 12:28:50;;;;;;;0.00;0.00;;;26.20;85.60;;;;;;5073035;28;20052;-80
2023/07/31 12:31:21;;;;;;;0.43;0.32;;;28.60;85.70;;;;;;5070108;28;20024;-80
2023/07/31 12:33:50;;;;;;;0.20;0.20;;;28.70;84.60;;;;;;5068600;28;20028;-80
2023/07/31 12:36:27;;;;;;;0.00;0.00;;;29.10;83.80;;;;;;5071006;28;20021;-79
2023/07/31 12:38:55;;;;;;;0.10;0.10;;;29.80;82.50;;;;;;5068665;28;20024;-80
2023/07/31 12:41:27;;;;;;;0.00;0.00;;;30.40;80.10;;;;;;5069656;28;20219;-90
2023/07/31 12:43:53;;;;;;;0.22;0.22;;;28.40;78.70;;;;;;5069826;28;20094;-89
2023/07/31 12:46:19;;;;;;;0.10;0.10;;;31.90;77.20;;;;;;5053162;28;20025;-80
2023/07/31 12:48:44;;;;;;;0.35;0.28;;;32.70;76.80;;;;;;5065727;28;20032;-94
2023/07/31 12:51:10;;;;;;;0.10;0.10;;;33.30;74.30;;;;;;5072244;28;20036;-80
2023/07/31 12:53:59;;;;;;;0.20;0.20;;;33.60;72.90;;;;;;5041228;28;20542;-81
2023/07/31 12:56:25;;;;;;;0.30;0.30;;;33.60;70.90;;;;;;5038593;28;20098;-88
2023/07/31 12:58:52;;;;;;;0.10;0.10;;;31.50;69.00;;;;;;5042795;28;20044;-81
2023/07/31 13:01:18;;;;;;;0.55;0.55;;;33.60;70.00;;;;;;5041847;28;20017;-82
2023/07/31 13:03:52;;;;;;;0.68;0.25;;;33.90;69.80;;;;;;5040145;28;20104;-89
2023/07/31 13:06:20;;;;;;;0.77;0.77;;;34.20;68.20;;;;;;5041654;28;20025;-86
2023/07/31 13:08:46;;;;;;;0.40;0.40;;;32.40;70.40;;;;;;5042988;28;20718;-83
2023/07/31 13:11:12;;;;;;;0.13;0.13;;;33.40;69.60;;;;;;5042753;28;20020;-87